createdAt,value
2022-10-26T00:01:33.789Z,313.10
2022-10-26T00:04:03.145Z,303.40
2022-10-26T00:06:32.043Z,319.42
2022-10-26T00:09:01.196Z,324.00
2022-10-26T00:11:30.252Z,314.88
2022-10-26T00:13:59.434Z,373.65
2022-10-26T00:16:29.650Z,350.52
2022-10-26T00:18:59.020Z,335.30
2022-10-26T00:21:28.094Z,359.83
2022-10-26T00:23:57.947Z,369.73
2022-10-26T00:26:27.051Z,373.13
2022-10-26T00:28:58.471Z,356.20
2022-10-26T00:31:27.664Z,357.90
2022-10-26T00:33:57.800Z,362.63
2022-10-26T00:36:27.830Z,367.98
2022-10-26T00:38:58.418Z,386.85
2022-10-26T00:41:31.971Z,353.65
2022-10-26T00:44:01.765Z,362.15
2022-10-26T00:46:37.547Z,374.10
2022-10-26T00:49:14.659Z,363.77
2022-10-26T00:51:48.137Z,391.92
2022-10-26T00:54:20.030Z,374.55
2022-10-26T00:56:52.844Z,380.85
2022-10-26T00:59:24.247Z,351.02
2022-10-26T01:01:57.089Z,379.90
2022-10-26T01:04:31.202Z,360.50
2022-10-26T01:07:08.219Z,376.48
2022-10-26T01:09:40.640Z,355.67
2022-10-26T01:12:12.303Z,363.15
2022-10-26T01:14:43.820Z,364.30
2022-10-26T01:17:32.108Z,348.25
2022-10-26T01:20:06.668Z,345.30
2022-10-26T01:22:43.029Z,330.88
2022-10-26T01:25:29.104Z,339.88
2022-10-26T01:27:59.824Z,353.50
2022-10-26T01:30:42.238Z,357.17
2022-10-26T01:33:49.913Z,368.50
2022-10-26T01:36:54.704Z,363.85
2022-10-26T01:39:40.591Z,380.60
2022-10-26T01:42:12.981Z,361.88
2022-10-26T01:47:16.934Z,335.45
2022-10-26T01:49:54.423Z,351.83
2022-10-26T01:52:24.320Z,338.60
2022-10-26T01:54:53.400Z,333.33
2022-10-26T01:57:23.380Z,316.08
2022-10-26T01:59:55.899Z,292.25
2022-10-26T02:03:00.031Z,293.20
2022-10-26T02:05:46.019Z,288.83
2022-10-26T02:08:42.530Z,304.25
2022-10-26T02:11:14.578Z,300.92
2022-10-26T02:13:54.071Z,291.70
2022-10-26T02:16:46.697Z,308.63
2022-10-26T02:19:42.174Z,295.30
2022-10-26T02:22:48.965Z,299.83
2022-10-26T02:25:27.202Z,284.15
2022-10-26T02:28:08.233Z,291.75
2022-10-26T02:30:39.105Z,292.05
2022-10-26T02:33:11.997Z,303.80
2022-10-26T02:38:13.047Z,310.77
2022-10-26T02:40:43.374Z,325.93
2022-10-26T02:43:16.838Z,324.52
2022-10-26T02:45:50.576Z,349.65
2022-10-26T02:48:20.772Z,292.70
2022-10-26T02:51:01.567Z,290.95
2022-10-26T02:53:46.160Z,310.55
2022-10-26T02:56:44.280Z,313.75
2022-10-26T02:59:16.648Z,321.50
2022-10-26T03:01:46.909Z,360.75
2022-10-26T03:04:16.467Z,375.38
2022-10-26T03:06:54.710Z,411.40
2022-10-26T03:09:25.551Z,379.08
2022-10-26T03:11:55.168Z,390.98
2022-10-26T03:14:24.408Z,412.55
2022-10-26T03:16:53.891Z,415.83
2022-10-26T03:19:22.773Z,376.00
2022-10-26T03:21:52.162Z,401.30
2022-10-26T03:24:21.198Z,411.15
2022-10-26T03:26:50.943Z,447.48
2022-10-26T03:29:20.097Z,448.80
2022-10-26T03:31:49.988Z,471.10
2022-10-26T03:34:19.841Z,460.63
2022-10-26T03:36:49.741Z,483.55
2022-10-26T03:39:18.880Z,473.88
2022-10-26T03:41:49.295Z,490.42
2022-10-26T03:44:18.518Z,471.92
2022-10-26T03:46:47.430Z,486.10
2022-10-26T03:49:16.869Z,481.98
2022-10-26T03:51:46.137Z,481.30
2022-10-26T03:56:45.114Z,484.40
2022-10-26T03:59:14.383Z,492.08
2022-10-26T04:01:43.852Z,517.10
2022-10-26T04:04:13.530Z,499.63
2022-10-26T04:06:43.147Z,494.90
2022-10-26T04:09:12.243Z,504.08
2022-10-26T04:11:41.526Z,492.38
2022-10-26T04:14:10.727Z,486.45
2022-10-26T04:19:44.385Z,476.92
2022-10-26T04:22:15.211Z,459.90
2022-10-26T04:24:45.190Z,373.02
2022-10-26T04:27:14.385Z,339.10
2022-10-26T04:29:43.869Z,353.67
2022-10-26T04:32:13.110Z,371.90
2022-10-26T04:34:42.178Z,332.23
2022-10-26T04:37:11.705Z,325.10
2022-10-26T04:39:40.887Z,309.17
2022-10-26T04:42:10.052Z,328.30
2022-10-26T04:44:39.079Z,271.40
2022-10-26T04:47:08.867Z,259.65
2022-10-26T04:49:38.236Z,234.00
2022-10-26T04:52:07.965Z,257.35
2022-10-26T04:54:37.240Z,250.55
2022-10-26T04:57:06.758Z,263.55
2022-10-26T04:59:35.858Z,226.27
2022-10-26T05:02:05.199Z,262.23
2022-10-26T05:04:34.476Z,248.68
2022-10-26T05:07:04.280Z,246.93
2022-10-26T05:09:33.416Z,174.40
2022-10-26T05:12:02.813Z,165.60
2022-10-26T05:14:31.985Z,159.52
2022-10-26T05:17:01.246Z,147.57
2022-10-26T05:19:30.463Z,197.40
2022-10-26T05:21:59.402Z,181.40
2022-10-26T05:24:28.798Z,194.32
2022-10-26T05:26:57.838Z,224.88
2022-10-26T05:29:26.948Z,215.20
2022-10-26T05:31:56.275Z,139.85
2022-10-26T05:34:25.557Z,126.03
2022-10-26T05:36:55.721Z,153.50
2022-10-26T05:39:24.912Z,170.15
2022-10-26T05:41:54.180Z,159.45
2022-10-26T05:44:23.968Z,171.10
2022-10-26T05:46:53.145Z,149.13
2022-10-26T05:49:22.229Z,154.68
2022-10-26T05:51:51.545Z,131.65
2022-10-26T05:54:23.886Z,273.20
2022-10-26T05:59:22.076Z,123.55
2022-10-26T06:01:57.024Z,113.63
2022-10-26T06:04:44.789Z,147.48
2022-10-26T06:07:17.395Z,168.25
2022-10-26T06:09:49.353Z,123.00
2022-10-26T06:12:19.847Z,124.88
2022-10-26T06:14:49.781Z,113.72
2022-10-26T06:17:47.843Z,108.50
2022-10-26T06:20:43.470Z,116.30
2022-10-26T06:23:44.644Z,104.53
2022-10-26T06:26:58.248Z,123.53
2022-10-26T06:29:57.875Z,117.00
2022-10-26T06:32:27.569Z,130.68
2022-10-26T06:35:21.743Z,118.30
2022-10-26T06:37:53.095Z,150.50
2022-10-26T06:40:24.697Z,114.70
2022-10-26T06:42:54.620Z,108.53
2022-10-26T06:45:24.320Z,113.30
2022-10-26T06:48:03.807Z,123.80
2022-10-26T06:50:51.838Z,145.30
2022-10-26T06:53:28.289Z,123.47
2022-10-26T06:56:00.820Z,118.28
2022-10-26T06:58:36.266Z,134.45
2022-10-26T07:01:05.959Z,131.75
2022-10-26T07:03:35.110Z,114.22
2022-10-26T07:06:04.159Z,141.65
2022-10-26T07:08:43.429Z,132.35
2022-10-26T07:11:13.877Z,111.13
2022-10-26T07:13:43.020Z,124.55
2022-10-26T07:16:12.018Z,121.30
2022-10-26T07:18:41.710Z,116.47
2022-10-26T07:21:11.555Z,109.55
2022-10-26T07:23:41.041Z,110.40
2022-10-26T07:26:10.737Z,102.25
2022-10-26T07:28:43.353Z,119.03
2022-10-26T07:31:13.079Z,112.30
2022-10-26T07:33:43.901Z,91.13
2022-10-26T07:36:13.876Z,80.30
2022-10-26T07:38:43.446Z,70.28
2022-10-26T07:41:12.520Z,67.18
2022-10-26T07:43:41.678Z,80.80
2022-10-26T07:46:10.965Z,102.72
2022-10-26T07:48:40.789Z,88.20
2022-10-26T07:51:10.658Z,122.00
2022-10-26T07:53:39.700Z,64.35
2022-10-26T07:56:09.718Z,70.70
2022-10-26T07:58:39.240Z,76.93
2022-10-26T08:01:14.126Z,75.38
2022-10-26T08:03:44.395Z,60.35
2022-10-26T08:06:14.632Z,75.00
2022-10-26T08:08:46.638Z,80.63
2022-10-26T08:11:17.750Z,105.07
2022-10-26T08:13:47.446Z,77.95
2022-10-26T08:16:16.946Z,76.97
2022-10-26T08:18:45.852Z,79.32
2022-10-26T08:21:21.655Z,148.82
2022-10-26T08:23:55.720Z,71.45
2022-10-26T08:26:25.556Z,289.50
2022-10-26T08:28:55.136Z,112.43
2022-10-26T08:31:24.845Z,86.75
2022-10-26T08:33:54.161Z,124.50
2022-10-26T08:36:28.699Z,91.85
2022-10-26T08:41:54.448Z,70.65
2022-10-26T08:44:30.525Z,80.85
2022-10-26T08:47:23.794Z,78.55
2022-10-26T08:50:04.120Z,106.80
2022-10-26T08:53:04.686Z,128.88
2022-10-26T08:55:52.914Z,126.75
2022-10-26T08:58:27.547Z,112.20
2022-10-26T09:00:57.500Z,84.43
2022-10-26T09:03:26.762Z,91.70
2022-10-26T09:06:43.176Z,96.38
2022-10-26T09:09:22.543Z,80.20
2022-10-26T09:12:18.200Z,96.00
2022-10-26T09:14:47.340Z,83.70
2022-10-26T09:17:19.272Z,77.93
2022-10-26T09:22:45.283Z,85.22
2022-10-26T09:25:21.030Z,81.68
2022-10-26T09:28:19.639Z,83.50
2022-10-26T09:30:49.963Z,79.93
2022-10-26T09:33:25.870Z,85.90
2022-10-26T09:36:02.634Z,67.78
2022-10-26T09:38:40.613Z,57.03
2022-10-26T09:41:42.486Z,49.42
2022-10-26T09:44:46.799Z,66.95
2022-10-26T09:47:34.726Z,81.95
2022-10-26T09:50:32.867Z,76.07
2022-10-26T09:53:02.361Z,78.72
2022-10-26T09:55:34.337Z,81.00
2022-10-26T09:58:08.591Z,64.65
2022-10-26T10:00:40.185Z,65.18
2022-10-26T10:03:23.275Z,83.77
2022-10-26T10:05:53.133Z,72.05
2022-10-26T10:08:28.438Z,80.20
2022-10-26T10:11:05.545Z,73.93
2022-10-26T10:13:38.579Z,66.93
2022-10-26T10:16:22.678Z,90.28
2022-10-26T10:18:58.189Z,97.25
2022-10-26T10:21:44.750Z,82.65
2022-10-26T10:24:29.484Z,110.35
2022-10-26T10:27:17.640Z,87.80
2022-10-26T10:29:56.429Z,118.75
2022-10-26T10:32:35.595Z,83.68
2022-10-26T10:35:31.258Z,67.53
2022-10-26T10:40:33.042Z,68.20
2022-10-26T10:45:37.514Z,73.10
2022-10-26T10:48:22.300Z,63.50
2022-10-26T10:51:22.520Z,71.50
2022-10-26T10:53:54.602Z,67.20
2022-10-26T10:56:34.355Z,62.33
2022-10-26T10:59:21.262Z,70.38
2022-10-26T11:02:03.213Z,61.80
2022-10-26T11:04:54.827Z,84.50
2022-10-26T11:07:27.460Z,63.20
2022-10-26T11:09:58.897Z,64.63
2022-10-26T11:15:14.600Z,88.28
2022-10-26T11:18:12.061Z,83.78
2022-10-26T11:20:52.699Z,87.40
2022-10-26T11:23:33.639Z,64.88
2022-10-26T11:26:17.151Z,103.03
2022-10-26T11:29:04.760Z,85.18
2022-10-26T11:31:44.240Z,77.53
2022-10-26T11:34:25.518Z,76.22
2022-10-26T11:37:05.427Z,102.40
2022-10-26T11:40:28.259Z,79.22
2022-10-26T11:43:11.896Z,99.53
2022-10-26T11:45:47.406Z,81.15
2022-10-26T11:48:29.898Z,78.03
2022-10-26T11:51:01.128Z,271.55
2022-10-26T11:53:42.616Z,130.52
2022-10-26T11:56:25.354Z,252.50
2022-10-26T11:58:55.735Z,111.13
2022-10-26T12:01:25.242Z,111.28
2022-10-26T12:03:59.148Z,120.70
2022-10-26T12:06:32.708Z,119.82
2022-10-26T12:09:10.538Z,98.97
2022-10-26T12:11:49.446Z,107.22
2022-10-26T12:14:51.713Z,84.60
2022-10-26T12:17:33.267Z,128.05
2022-10-26T12:20:47.126Z,113.50
2022-10-26T12:23:23.391Z,113.03
2022-10-26T12:26:41.804Z,120.63
2022-10-26T12:29:10.837Z,146.68
2022-10-26T12:31:39.594Z,122.93
2022-10-26T12:34:24.427Z,133.75
2022-10-26T12:36:59.418Z,143.85
2022-10-26T12:39:36.450Z,150.82
2022-10-26T12:42:27.386Z,177.77
2022-10-26T12:47:31.356Z,133.75
2022-10-26T12:50:21.206Z,136.20
2022-10-26T12:52:53.955Z,208.50
2022-10-26T12:55:23.717Z,184.88
2022-10-26T12:58:10.582Z,161.55
2022-10-26T13:00:49.746Z,128.10
2022-10-26T13:03:44.908Z,138.02
2022-10-26T13:06:43.906Z,130.13
2022-10-26T13:09:27.217Z,130.27
2022-10-26T13:11:58.614Z,131.95
2022-10-26T13:14:43.460Z,155.25
2022-10-26T13:17:28.992Z,146.38
2022-10-26T13:20:04.224Z,165.45
2022-10-26T13:22:34.227Z,126.15
2022-10-26T13:25:06.527Z,136.93
2022-10-26T13:27:35.899Z,139.60
2022-10-26T13:30:04.787Z,128.40
2022-10-26T13:32:50.294Z,121.32
2022-10-26T13:35:23.597Z,126.43
2022-10-26T13:37:55.655Z,137.30
2022-10-26T13:40:30.363Z,143.52
2022-10-26T13:43:06.763Z,139.98
2022-10-26T13:45:42.520Z,147.00
2022-10-26T13:48:18.565Z,142.52
2022-10-26T13:50:59.380Z,159.90
2022-10-26T13:54:23.830Z,158.00
2022-10-26T13:57:17.392Z,139.13
2022-10-26T13:59:47.709Z,134.63
2022-10-26T14:02:23.675Z,142.10
2022-10-26T14:05:03.089Z,154.98
2022-10-26T14:07:57.452Z,189.77
2022-10-26T14:10:34.367Z,165.60
2022-10-26T14:13:09.457Z,147.80
2022-10-26T14:15:38.806Z,135.80
2022-10-26T14:18:07.889Z,145.95
2022-10-26T14:20:37.202Z,172.10
2022-10-26T14:23:06.394Z,162.38
2022-10-26T14:25:48.055Z,146.95
2022-10-26T14:28:33.010Z,138.48
2022-10-26T14:31:22.922Z,163.90
2022-10-26T14:33:55.552Z,154.57
2022-10-26T14:36:51.423Z,147.45
2022-10-26T14:39:30.302Z,133.38
2022-10-26T14:42:01.062Z,140.05
2022-10-26T14:44:31.666Z,137.40
2022-10-26T14:47:00.728Z,142.80
2022-10-26T14:49:30.313Z,147.02
2022-10-26T14:52:07.442Z,156.15
2022-10-26T14:54:36.540Z,164.32
2022-10-26T14:57:09.920Z,196.55
2022-10-26T14:59:38.967Z,184.52
2022-10-26T15:02:23.904Z,202.88
2022-10-26T15:05:04.798Z,250.07
2022-10-26T15:07:42.936Z,246.30
2022-10-26T15:10:50.514Z,220.35
2022-10-26T15:13:26.242Z,214.70
2022-10-26T15:15:58.757Z,241.75
2022-10-26T15:21:04.285Z,215.02
2022-10-26T15:23:33.830Z,238.90
2022-10-26T15:26:04.885Z,226.65
2022-10-26T15:28:46.431Z,258.27
2022-10-26T15:31:16.138Z,201.85
2022-10-26T15:33:55.075Z,209.80
2022-10-26T15:36:29.257Z,192.93
2022-10-26T15:39:00.909Z,200.23
2022-10-26T15:41:31.620Z,189.35
2022-10-26T15:44:07.104Z,188.50
2022-10-26T15:46:42.443Z,200.95
2022-10-26T15:49:21.175Z,178.02
2022-10-26T15:51:50.905Z,175.55
2022-10-26T15:54:20.327Z,167.38
2022-10-26T15:56:49.971Z,149.60
2022-10-26T15:59:21.541Z,170.90
2022-10-26T16:01:53.680Z,168.18
2022-10-26T16:04:24.373Z,170.13
2022-10-26T16:06:58.029Z,161.60
2022-10-26T16:09:28.342Z,160.38
2022-10-26T16:11:57.861Z,173.45
2022-10-26T16:14:30.018Z,145.60
2022-10-26T16:17:02.647Z,182.77
2022-10-26T16:19:31.935Z,154.40
2022-10-26T16:22:01.942Z,185.18
2022-10-26T16:24:34.821Z,178.00
2022-10-26T16:27:03.801Z,186.00
2022-10-26T16:29:33.756Z,176.32
2022-10-26T16:32:06.962Z,169.15
2022-10-26T16:34:36.289Z,168.63
2022-10-26T16:37:05.625Z,173.80
2022-10-26T16:39:34.729Z,163.32
2022-10-26T16:42:03.765Z,161.32
2022-10-26T16:44:33.209Z,182.68
2022-10-26T16:47:02.393Z,178.07
2022-10-26T16:49:31.866Z,169.25
2022-10-26T16:52:01.174Z,162.43
2022-10-26T16:54:32.096Z,201.07
2022-10-26T16:57:01.940Z,183.52
2022-10-26T16:59:31.282Z,174.93
2022-10-26T17:02:00.857Z,175.65
2022-10-26T17:04:30.352Z,156.25
2022-10-26T17:06:59.504Z,176.02
2022-10-26T17:09:29.671Z,182.90
2022-10-26T17:12:01.909Z,160.77
2022-10-26T17:14:31.882Z,155.25
2022-10-26T17:17:01.013Z,164.02
2022-10-26T17:19:30.058Z,151.70
2022-10-26T17:21:59.373Z,175.63
2022-10-26T17:24:28.360Z,159.25
2022-10-26T17:26:57.636Z,173.05
2022-10-26T17:29:26.857Z,173.20
2022-10-26T17:31:55.879Z,158.73
2022-10-26T17:34:25.151Z,179.23
2022-10-26T17:36:54.031Z,166.82
2022-10-26T17:39:23.534Z,174.65
2022-10-26T17:41:52.812Z,169.45
2022-10-26T17:44:49.350Z,172.18
2022-10-26T17:47:18.460Z,188.30
2022-10-26T17:49:47.611Z,170.68
2022-10-26T17:52:16.663Z,173.57
2022-10-26T17:54:45.429Z,180.35
2022-10-26T17:57:14.603Z,189.20
2022-10-26T17:59:43.664Z,186.38
2022-10-26T18:02:13.737Z,173.88
2022-10-26T18:04:42.866Z,190.52
2022-10-26T18:07:11.796Z,175.10
2022-10-26T18:09:41.177Z,192.45
2022-10-26T18:12:11.805Z,173.65
2022-10-26T18:14:40.870Z,181.25
2022-10-26T18:17:10.414Z,193.35
2022-10-26T18:19:39.223Z,176.70
2022-10-26T18:22:08.505Z,193.40
2022-10-26T18:24:37.665Z,208.90
2022-10-26T18:27:06.805Z,195.25
2022-10-26T18:29:38.861Z,195.63
2022-10-26T18:32:08.830Z,187.60
2022-10-26T18:34:38.278Z,186.68
2022-10-26T18:37:07.397Z,209.38
2022-10-26T18:39:36.456Z,206.98
2022-10-26T18:42:05.919Z,198.15
2022-10-26T18:44:35.039Z,187.50
2022-10-26T18:47:03.896Z,226.90
2022-10-26T18:49:33.835Z,205.02
2022-10-26T18:52:03.045Z,213.15
2022-10-26T18:54:31.921Z,194.57
2022-10-26T18:57:02.315Z,203.75
2022-10-26T18:59:31.771Z,221.63
2022-10-26T19:02:01.118Z,200.27
2022-10-26T19:04:30.844Z,200.25
2022-10-26T19:07:00.579Z,199.10
2022-10-26T19:09:29.440Z,208.68
2022-10-26T19:12:01.510Z,234.95
2022-10-26T19:14:32.945Z,220.80
2022-10-26T19:17:01.994Z,193.23
2022-10-26T19:19:31.314Z,213.40
2022-10-26T19:22:01.307Z,220.82
2022-10-26T19:24:31.043Z,224.50
2022-10-26T19:27:00.041Z,235.30
2022-10-26T19:29:29.161Z,210.60
2022-10-26T19:31:58.532Z,230.10
2022-10-26T19:34:27.773Z,237.77
2022-10-26T19:36:57.036Z,232.40
2022-10-26T19:39:27.334Z,232.05
2022-10-26T19:41:56.660Z,217.77
2022-10-26T19:44:25.802Z,228.65
2022-10-26T19:46:55.053Z,223.00
2022-10-26T19:49:24.394Z,208.50
2022-10-26T19:51:54.692Z,187.40
2022-10-26T19:54:24.254Z,194.95
2022-10-26T19:56:53.149Z,207.27
2022-10-26T19:59:22.429Z,188.13
2022-10-26T20:01:51.380Z,182.95
2022-10-26T20:04:20.711Z,186.50
2022-10-26T20:06:49.967Z,183.63
2022-10-26T20:09:19.983Z,175.98
2022-10-26T20:11:49.834Z,179.25
2022-10-26T20:14:19.297Z,156.23
2022-10-26T20:16:48.766Z,167.57
2022-10-26T20:19:17.850Z,160.50
2022-10-26T20:21:47.770Z,164.57
2022-10-26T20:24:16.861Z,158.05
2022-10-26T20:26:46.244Z,163.65
2022-10-26T20:29:15.234Z,157.63
2022-10-26T20:31:44.203Z,166.32
2022-10-26T20:34:13.316Z,161.43
2022-10-26T20:36:42.535Z,153.45
2022-10-26T20:39:12.054Z,151.63
2022-10-26T20:41:44.881Z,148.98
2022-10-26T20:44:28.675Z,143.95
2022-10-26T20:46:58.342Z,136.15
2022-10-26T20:49:27.439Z,131.68
2022-10-26T20:52:21.771Z,135.57
2022-10-26T20:55:00.874Z,130.35
2022-10-26T20:57:36.205Z,136.57
2022-10-26T21:00:09.946Z,114.95
2022-10-26T21:02:39.324Z,113.65
2022-10-26T21:05:08.475Z,110.40
2022-10-26T21:07:37.896Z,110.80
2022-10-26T21:10:07.297Z,115.03
2022-10-26T21:12:36.382Z,115.65
2022-10-26T21:15:05.834Z,107.40
2022-10-26T21:17:35.471Z,121.78
2022-10-26T21:20:05.008Z,119.25
2022-10-26T21:22:34.236Z,116.07
2022-10-26T21:25:03.138Z,113.75
2022-10-26T21:27:32.424Z,134.13
2022-10-26T21:30:02.025Z,112.47
2022-10-26T21:32:31.544Z,106.45
2022-10-26T21:35:00.642Z,118.47
2022-10-26T21:37:29.907Z,124.25
2022-10-26T21:39:58.761Z,106.22
2022-10-26T21:42:27.918Z,108.65
2022-10-26T21:44:56.872Z,117.28
2022-10-26T21:47:26.188Z,118.97
2022-10-26T21:49:55.468Z,111.22
2022-10-26T21:52:24.366Z,117.47
2022-10-26T21:54:53.718Z,114.45
2022-10-26T21:57:22.707Z,118.05
2022-10-26T21:59:51.678Z,117.22
2022-10-26T22:02:20.898Z,111.55
2022-10-26T22:04:50.404Z,98.55
2022-10-26T22:07:21.044Z,108.25
2022-10-26T22:10:07.729Z,101.20
2022-10-26T22:12:39.557Z,108.72
2022-10-26T22:15:09.131Z,104.70
2022-10-26T22:17:42.413Z,112.25
2022-10-26T22:20:13.115Z,111.70
2022-10-26T22:22:42.349Z,106.32
2022-10-26T22:25:11.578Z,108.18
2022-10-26T22:27:40.585Z,104.00
2022-10-26T22:30:10.362Z,104.70
2022-10-26T22:32:39.419Z,109.28
2022-10-26T22:35:28.621Z,112.18
2022-10-26T22:37:57.942Z,110.82
2022-10-26T22:40:27.254Z,112.15
2022-10-26T22:42:56.246Z,120.15
2022-10-26T22:45:25.422Z,112.68
2022-10-26T22:47:54.774Z,129.65
2022-10-26T22:50:24.038Z,116.40
2022-10-26T22:52:53.632Z,130.50
2022-10-26T22:55:22.752Z,115.07
2022-10-26T22:57:52.062Z,118.25
2022-10-26T23:00:21.694Z,123.57
2022-10-26T23:02:51.238Z,123.38
2022-10-26T23:05:20.083Z,129.07
2022-10-26T23:07:49.531Z,133.43
2022-10-26T23:10:19.190Z,142.43
2022-10-26T23:12:51.477Z,139.27
2022-10-26T23:15:20.488Z,147.60
2022-10-26T23:17:49.983Z,154.18
2022-10-26T23:20:19.602Z,155.57
2022-10-26T23:22:48.842Z,150.93
2022-10-26T23:25:18.523Z,156.85
2022-10-26T23:27:47.458Z,147.73
2022-10-26T23:30:16.609Z,158.00
2022-10-26T23:32:45.777Z,143.90
2022-10-26T23:35:14.780Z,161.88
2022-10-26T23:37:44.322Z,163.88
2022-10-26T23:40:13.632Z,200.70
2022-10-26T23:42:43.366Z,208.13
2022-10-26T23:45:12.623Z,215.02
2022-10-26T23:47:41.918Z,221.90
2022-10-26T23:50:11.303Z,225.20
2022-10-26T23:52:40.140Z,253.00
2022-10-26T23:55:10.174Z,248.40
2022-10-26T23:57:41.155Z,253.68
